sensor_id;sensor_type;location;lat;lon;timestamp;temperature;humidity
19930;DHT22;10127;47.780;9.606;2022-09-03T00:00:54;17.30;99.90
19930;DHT22;10127;47.780;9.606;2022-09-03T00:08:47;17.20;99.90
19930;DHT22;10127;47.780;9.606;2022-09-03T00:11:32;17.00;99.90
19930;DHT22;10127;47.780;9.606;2022-09-03T00:16:58;16.90;99.90
19930;DHT22;10127;47.780;9.606;2022-09-03T00:19:29;16.90;99.90
19930;DHT22;10127;47.780;9.606;2022-09-03T00:22:09;17.00;99.90
19930;DHT22;10127;47.780;9.606;2022-09-03T00:24:39;17.00;99.90
19930;DHT22;10127;47.780;9.606;2022-09-03T00:27:11;16.90;99.90
19930;DHT22;10127;47.780;9.606;2022-09-03T00:29:44;16.90;99.90
19930;DHT22;10127;47.780;9.606;2022-09-03T00:32:23;16.90;99.90
19930;DHT22;10127;47.780;9.606;2022-09-03T00:34:56;16.90;99.90
19930;DHT22;10127;47.780;9.606;2022-09-03T00:37:26;16.90;99.90
19930;DHT22;10127;47.780;9.606;2022-09-03T00:39:54;16.70;99.90
19930;DHT22;10127;47.780;9.606;2022-09-03T00:42:42;16.60;99.90
19930;DHT22;10127;47.780;9.606;2022-09-03T00:45:42;16.70;99.90
19930;DHT22;10127;47.780;9.606;2022-09-03T00:48:24;16.70;99.90
19930;DHT22;10127;47.780;9.606;2022-09-03T00:54:01;16.60;99.90
19930;DHT22;10127;47.780;9.606;2022-09-03T00:57:18;16.50;99.90
19930;DHT22;10127;47.780;9.606;2022-09-03T01:00:08;16.50;99.90
19930;DHT22;10127;47.780;9.606;2022-09-03T01:11:32;16.40;99.90
19930;DHT22;10127;47.780;9.606;2022-09-03T01:14:44;16.40;99.90
19930;DHT22;10127;47.780;9.606;2022-09-03T01:17:45;16.40;99.90
19930;DHT22;10127;47.780;9.606;2022-09-03T01:29:11;16.40;99.90
19930;DHT22;10127;47.780;9.606;2022-09-03T01:32:12;16.40;99.90
19930;DHT22;10127;47.780;9.606;2022-09-03T01:37:59;16.40;99.90
19930;DHT22;10127;47.780;9.606;2022-09-03T01:40:45;16.40;99.90
19930;DHT22;10127;47.780;9.606;2022-09-03T01:43:33;16.50;99.90
19930;DHT22;10127;47.780;9.606;2022-09-03T01:46:23;16.40;99.90
19930;DHT22;10127;47.780;9.606;2022-09-03T01:48:52;16.40;99.90
19930;DHT22;10127;47.780;9.606;2022-09-03T01:51:27;16.30;99.90
19930;DHT22;10127;47.780;9.606;2022-09-03T02:00:13;16.60;99.90
19930;DHT22;10127;47.780;9.606;2022-09-03T02:02:41;16.60;99.90
19930;DHT22;10127;47.780;9.606;2022-09-03T02:05:12;16.60;99.90
19930;DHT22;10127;47.780;9.606;2022-09-03T02:07:43;16.50;99.90
19930;DHT22;10127;47.780;9.606;2022-09-03T02:10:21;16.40;99.90
19930;DHT22;10127;47.780;9.606;2022-09-03T02:12:52;16.50;99.90
19930;DHT22;10127;47.780;9.606;2022-09-03T02:15:20;16.50;99.90
19930;DHT22;10127;47.780;9.606;2022-09-03T02:17:48;16.50;99.90
19930;DHT22;10127;47.780;9.606;2022-09-03T02:20:18;16.40;99.90
19930;DHT22;10127;47.780;9.606;2022-09-03T02:22:45;16.40;99.90
19930;DHT22;10127;47.780;9.606;2022-09-03T02:25:12;16.40;99.90
19930;DHT22;10127;47.780;9.606;2022-09-03T02:27:38;16.50;99.90
19930;DHT22;10127;47.780;9.606;2022-09-03T02:30:04;16.50;99.90
19930;DHT22;10127;47.780;9.606;2022-09-03T02:32:31;16.50;99.90
19930;DHT22;10127;47.780;9.606;2022-09-03T02:34:57;16.70;99.90
19930;DHT22;10127;47.780;9.606;2022-09-03T02:37:22;16.60;99.90
19930;DHT22;10127;47.780;9.606;2022-09-03T02:39:49;16.80;99.90
19930;DHT22;10127;47.780;9.606;2022-09-03T02:42:16;16.90;99.90
19930;DHT22;10127;47.780;9.606;2022-09-03T02:44:56;17.00;99.90
19930;DHT22;10127;47.780;9.606;2022-09-03T02:47:28;17.10;99.90
19930;DHT22;10127;47.780;9.606;2022-09-03T02:49:56;17.10;99.90
19930;DHT22;10127;47.780;9.606;2022-09-03T03:12:55;17.00;99.90
19930;DHT22;10127;47.780;9.606;2022-09-03T03:15:20;16.80;99.90
19930;DHT22;10127;47.780;9.606;2022-09-03T03:17:46;16.90;99.90
19930;DHT22;10127;47.780;9.606;2022-09-03T03:20:12;17.00;99.90
19930;DHT22;10127;47.780;9.606;2022-09-03T03:22:38;17.10;99.90
19930;DHT22;10127;47.780;9.606;2022-09-03T03:25:04;17.10;99.90
19930;DHT22;10127;47.780;9.606;2022-09-03T03:27:30;17.00;99.90
19930;DHT22;10127;47.780;9.606;2022-09-03T03:29:55;16.90;99.90
19930;DHT22;10127;47.780;9.606;2022-09-03T03:32:22;16.90;99.90
19930;DHT22;10127;47.780;9.606;2022-09-03T03:34:48;16.80;99.90
19930;DHT22;10127;47.780;9.606;2022-09-03T03:37:13;16.80;99.90
19930;DHT22;10127;47.780;9.606;2022-09-03T03:39:39;17.00;99.90
19930;DHT22;10127;47.780;9.606;2022-09-03T03:42:04;17.10;99.90
19930;DHT22;10127;47.780;9.606;2022-09-03T03:44:30;17.10;99.90
19930;DHT22;10127;47.780;9.606;2022-09-03T03:46:55;17.10;99.90
19930;DHT22;10127;47.780;9.606;2022-09-03T03:49:21;17.10;99.90
19930;DHT22;10127;47.780;9.606;2022-09-03T03:51:47;17.00;99.90
19930;DHT22;10127;47.780;9.606;2022-09-03T03:54:12;16.90;99.90
19930;DHT22;10127;47.780;9.606;2022-09-03T03:56:38;16.80;99.90
19930;DHT22;10127;47.780;9.606;2022-09-03T03:59:03;16.70;99.90
19930;DHT22;10127;47.780;9.606;2022-09-03T04:01:29;16.80;99.90
19930;DHT22;10127;47.780;9.606;2022-09-03T04:03:56;16.90;99.90
19930;DHT22;10127;47.780;9.606;2022-09-03T04:06:22;16.90;99.90
19930;DHT22;10127;47.780;9.606;2022-09-03T04:08:48;17.00;99.90
19930;DHT22;10127;47.780;9.606;2022-09-03T04:11:17;17.10;99.90
19930;DHT22;10127;47.780;9.606;2022-09-03T04:13:43;17.10;99.90
19930;DHT22;10127;47.780;9.606;2022-09-03T04:16:12;17.10;99.90
19930;DHT22;10127;47.780;9.606;2022-09-03T04:18:38;17.00;99.90
19930;DHT22;10127;47.780;9.606;2022-09-03T04:21:07;16.90;99.90
19930;DHT22;10127;47.780;9.606;2022-09-03T04:23:34;16.90;99.90
19930;DHT22;10127;47.780;9.606;2022-09-03T04:26:00;16.90;99.90
19930;DHT22;10127;47.780;9.606;2022-09-03T04:28:26;16.80;99.90
19930;DHT22;10127;47.780;9.606;2022-09-03T04:30:52;16.80;99.90
19930;DHT22;10127;47.780;9.606;2022-09-03T04:33:18;16.80;99.90
19930;DHT22;10127;47.780;9.606;2022-09-03T04:35:44;16.90;99.90
19930;DHT22;10127;47.780;9.606;2022-09-03T04:38:09;16.90;99.90
19930;DHT22;10127;47.780;9.606;2022-09-03T04:40:35;16.80;99.90
19930;DHT22;10127;47.780;9.606;2022-09-03T04:43:01;16.80;99.90
19930;DHT22;10127;47.780;9.606;2022-09-03T04:45:27;16.70;99.90
19930;DHT22;10127;47.780;9.606;2022-09-03T04:48:03;16.80;99.90
19930;DHT22;10127;47.780;9.606;2022-09-03T04:50:30;16.80;99.90
19930;DHT22;10127;47.780;9.606;2022-09-03T04:53:01;16.80;99.90
19930;DHT22;10127;47.780;9.606;2022-09-03T04:55:31;16.80;99.90
19930;DHT22;10127;47.780;9.606;2022-09-03T04:57:58;16.80;99.90
19930;DHT22;10127;47.780;9.606;2022-09-03T05:00:23;16.80;99.90
19930;DHT22;10127;47.780;9.606;2022-09-03T05:02:49;16.70;99.90
19930;DHT22;10127;47.780;9.606;2022-09-03T05:05:17;16.70;99.90
19930;DHT22;10127;47.780;9.606;2022-09-03T05:07:43;16.80;99.90
19930;DHT22;10127;47.780;9.606;2022-09-03T05:10:11;16.70;99.90
19930;DHT22;10127;47.780;9.606;2022-09-03T05:12:40;16.70;99.90
19930;DHT22;10127;47.780;9.606;2022-09-03T05:15:07;16.80;99.90
19930;DHT22;10127;47.780;9.606;2022-09-03T05:17:32;16.80;99.90
19930;DHT22;10127;47.780;9.606;2022-09-03T05:19:58;16.80;99.90
19930;DHT22;10127;47.780;9.606;2022-09-03T05:22:24;16.80;99.90
19930;DHT22;10127;47.780;9.606;2022-09-03T05:24:49;16.80;99.90
19930;DHT22;10127;47.780;9.606;2022-09-03T05:27:15;16.90;99.90
19930;DHT22;10127;47.780;9.606;2022-09-03T05:29:42;16.90;99.90
19930;DHT22;10127;47.780;9.606;2022-09-03T05:32:08;16.90;99.90
19930;DHT22;10127;47.780;9.606;2022-09-03T05:34:34;17.00;99.90
19930;DHT22;10127;47.780;9.606;2022-09-03T05:37:00;17.00;99.90
19930;DHT22;10127;47.780;9.606;2022-09-03T05:39:25;17.00;99.90
19930;DHT22;10127;47.780;9.606;2022-09-03T05:41:51;17.00;99.90
19930;DHT22;10127;47.780;9.606;2022-09-03T05:44:17;17.00;99.90
19930;DHT22;10127;47.780;9.606;2022-09-03T05:46:43;16.90;99.90
19930;DHT22;10127;47.780;9.606;2022-09-03T05:49:09;17.00;99.90
19930;DHT22;10127;47.780;9.606;2022-09-03T05:51:36;17.00;99.90
19930;DHT22;10127;47.780;9.606;2022-09-03T05:54:03;17.10;99.90
19930;DHT22;10127;47.780;9.606;2022-09-03T05:56:31;17.20;99.90
19930;DHT22;10127;47.780;9.606;2022-09-03T05:58:58;17.20;99.90
19930;DHT22;10127;47.780;9.606;2022-09-03T06:01:31;17.20;99.90
19930;DHT22;10127;47.780;9.606;2022-09-03T06:04:02;17.20;99.90
19930;DHT22;10127;47.780;9.606;2022-09-03T06:06:31;17.40;99.90
19930;DHT22;10127;47.780;9.606;2022-09-03T06:08:58;17.50;99.90
19930;DHT22;10127;47.780;9.606;2022-09-03T06:11:25;17.70;99.90
19930;DHT22;10127;47.780;9.606;2022-09-03T06:13:56;17.70;99.90
19930;DHT22;10127;47.780;9.606;2022-09-03T06:16:22;17.80;99.90
19930;DHT22;10127;47.780;9.606;2022-09-03T06:18:48;17.70;99.90
19930;DHT22;10127;47.780;9.606;2022-09-03T06:21:14;17.80;99.90
19930;DHT22;10127;47.780;9.606;2022-09-03T06:23:40;17.70;99.90
19930;DHT22;10127;47.780;9.606;2022-09-03T06:26:14;17.90;99.90
19930;DHT22;10127;47.780;9.606;2022-09-03T06:28:41;18.00;99.90
19930;DHT22;10127;47.780;9.606;2022-09-03T06:31:15;18.10;99.90
19930;DHT22;10127;47.780;9.606;2022-09-03T06:33:42;18.20;99.90
19930;DHT22;10127;47.780;9.606;2022-09-03T06:36:10;18.30;99.90
19930;DHT22;10127;47.780;9.606;2022-09-03T06:38:38;18.30;99.90
19930;DHT22;10127;47.780;9.606;2022-09-03T06:41:06;18.30;99.90
19930;DHT22;10127;47.780;9.606;2022-09-03T06:43:34;18.40;99.90
19930;DHT22;10127;47.780;9.606;2022-09-03T06:46:08;18.60;99.90
19930;DHT22;10127;47.780;9.606;2022-09-03T06:48:35;18.50;99.90
19930;DHT22;10127;47.780;9.606;2022-09-03T06:51:03;18.60;99.90
19930;DHT22;10127;47.780;9.606;2022-09-03T06:53:32;18.70;99.90
19930;DHT22;10127;47.780;9.606;2022-09-03T06:56:04;18.90;99.90
19930;DHT22;10127;47.780;9.606;2022-09-03T06:58:35;19.00;99.90
19930;DHT22;10127;47.780;9.606;2022-09-03T07:01:13;19.40;99.90
19930;DHT22;10127;47.780;9.606;2022-09-03T07:03:40;19.50;99.90
19930;DHT22;10127;47.780;9.606;2022-09-03T07:06:11;19.40;99.90
19930;DHT22;10127;47.780;9.606;2022-09-03T07:08:38;19.40;99.90
19930;DHT22;10127;47.780;9.606;2022-09-03T07:11:06;19.40;99.90
19930;DHT22;10127;47.780;9.606;2022-09-03T07:13:36;19.30;99.90
19930;DHT22;10127;47.780;9.606;2022-09-03T07:16:04;19.30;99.90
19930;DHT22;10127;47.780;9.606;2022-09-03T07:18:30;19.30;99.90
19930;DHT22;10127;47.780;9.606;2022-09-03T07:20:58;19.20;99.90
19930;DHT22;10127;47.780;9.606;2022-09-03T07:23:24;19.20;99.90
19930;DHT22;10127;47.780;9.606;2022-09-03T07:25:58;19.10;99.90
19930;DHT22;10127;47.780;9.606;2022-09-03T07:28:25;19.10;99.90
19930;DHT22;10127;47.780;9.606;2022-09-03T07:30:52;19.20;99.90
19930;DHT22;10127;47.780;9.606;2022-09-03T07:33:18;19.20;99.90
19930;DHT22;10127;47.780;9.606;2022-09-03T07:35:45;19.40;99.90
19930;DHT22;10127;47.780;9.606;2022-09-03T07:38:10;19.50;99.90
19930;DHT22;10127;47.780;9.606;2022-09-03T07:40:36;19.50;99.90
19930;DHT22;10127;47.780;9.606;2022-09-03T07:43:04;19.50;99.90
19930;DHT22;10127;47.780;9.606;2022-09-03T07:45:30;19.50;99.90
19930;DHT22;10127;47.780;9.606;2022-09-03T07:47:57;19.40;99.90
19930;DHT22;10127;47.780;9.606;2022-09-03T07:50:23;19.40;99.90
19930;DHT22;10127;47.780;9.606;2022-09-03T07:52:54;19.40;99.90
19930;DHT22;10127;47.780;9.606;2022-09-03T07:55:19;19.40;99.90
19930;DHT22;10127;47.780;9.606;2022-09-03T07:57:45;19.40;99.90
19930;DHT22;10127;47.780;9.606;2022-09-03T08:00:11;19.50;99.90
19930;DHT22;10127;47.780;9.606;2022-09-03T08:02:37;19.60;99.90
19930;DHT22;10127;47.780;9.606;2022-09-03T08:05:05;19.70;99.90
19930;DHT22;10127;47.780;9.606;2022-09-03T08:07:31;19.70;99.90
19930;DHT22;10127;47.780;9.606;2022-09-03T08:09:57;19.60;99.90
19930;DHT22;10127;47.780;9.606;2022-09-03T08:12:23;19.60;99.90
19930;DHT22;10127;47.780;9.606;2022-09-03T08:14:49;19.50;99.90
19930;DHT22;10127;47.780;9.606;2022-09-03T08:17:14;19.30;99.90
19930;DHT22;10127;47.780;9.606;2022-09-03T08:19:40;19.30;99.90
19930;DHT22;10127;47.780;9.606;2022-09-03T08:22:07;19.40;99.90
19930;DHT22;10127;47.780;9.606;2022-09-03T08:24:32;19.50;99.90
19930;DHT22;10127;47.780;9.606;2022-09-03T08:27:00;19.60;99.90
19930;DHT22;10127;47.780;9.606;2022-09-03T08:29:25;20.00;99.90
19930;DHT22;10127;47.780;9.606;2022-09-03T08:31:52;20.40;99.90
19930;DHT22;10127;47.780;9.606;2022-09-03T08:34:18;20.50;99.90
19930;DHT22;10127;47.780;9.606;2022-09-03T08:36:44;20.50;99.90
19930;DHT22;10127;47.780;9.606;2022-09-03T08:39:11;20.50;99.90
19930;DHT22;10127;47.780;9.606;2022-09-03T08:44:23;20.60;99.90
19930;DHT22;10127;47.780;9.606;2022-09-03T08:49:50;20.80;99.90
19930;DHT22;10127;47.780;9.606;2022-09-03T08:52:33;20.90;99.90
19930;DHT22;10127;47.780;9.606;2022-09-03T08:58:05;21.00;99.90
19930;DHT22;10127;47.780;9.606;2022-09-03T09:06:18;20.50;99.90
19930;DHT22;10127;47.780;9.606;2022-09-03T09:14:49;20.50;99.90
19930;DHT22;10127;47.780;9.606;2022-09-03T09:20:01;20.60;99.90
19930;DHT22;10127;47.780;9.606;2022-09-03T09:25:03;20.70;99.90
19930;DHT22;10127;47.780;9.606;2022-09-03T09:27:31;20.70;99.90
19930;DHT22;10127;47.780;9.606;2022-09-03T09:29:58;20.60;99.90
19930;DHT22;10127;47.780;9.606;2022-09-03T09:32:26;20.60;99.90
19930;DHT22;10127;47.780;9.606;2022-09-03T09:34:52;20.60;99.90
19930;DHT22;10127;47.780;9.606;2022-09-03T09:37:19;20.60;99.90
19930;DHT22;10127;47.780;9.606;2022-09-03T09:39:57;20.60;99.90
19930;DHT22;10127;47.780;9.606;2022-09-03T09:42:23;20.70;99.90
19930;DHT22;10127;47.780;9.606;2022-09-03T09:44:49;20.80;99.90
19930;DHT22;10127;47.780;9.606;2022-09-03T09:47:30;20.80;99.90
19930;DHT22;10127;47.780;9.606;2022-09-03T09:50:00;21.00;99.90
19930;DHT22;10127;47.780;9.606;2022-09-03T09:52:28;21.10;99.90
19930;DHT22;10127;47.780;9.606;2022-09-03T09:55:12;21.10;99.40
19930;DHT22;10127;47.780;9.606;2022-09-03T09:57:38;21.10;98.50
19930;DHT22;10127;47.780;9.606;2022-09-03T10:00:06;21.20;98.40
19930;DHT22;10127;47.780;9.606;2022-09-03T10:02:35;21.30;98.60
19930;DHT22;10127;47.780;9.606;2022-09-03T10:05:13;21.40;98.40
19930;DHT22;10127;47.780;9.606;2022-09-03T10:07:40;21.50;98.20
19930;DHT22;10127;47.780;9.606;2022-09-03T10:10:16;21.50;97.70
19930;DHT22;10127;47.780;9.606;2022-09-03T10:13:00;21.60;95.90
19930;DHT22;10127;47.780;9.606;2022-09-03T10:21:17;21.80;94.70
19930;DHT22;10127;47.780;9.606;2022-09-03T10:26:22;22.00;95.00
19930;DHT22;10127;47.780;9.606;2022-09-03T10:28:57;22.00;94.40
19930;DHT22;10127;47.780;9.606;2022-09-03T10:31:45;22.10;94.40
19930;DHT22;10127;47.780;9.606;2022-09-03T10:35:03;22.30;94.10
19930;DHT22;10127;47.780;9.606;2022-09-03T10:37:40;22.40;94.00
19930;DHT22;10127;47.780;9.606;2022-09-03T10:45:28;23.10;92.90
19930;DHT22;10127;47.780;9.606;2022-09-03T10:51:22;23.50;92.50
19930;DHT22;10127;47.780;9.606;2022-09-03T10:54:08;23.60;92.00
19930;DHT22;10127;47.780;9.606;2022-09-03T11:05:31;22.60;94.20
19930;DHT22;10127;47.780;9.606;2022-09-03T11:08:22;22.30;96.10
19930;DHT22;10127;47.780;9.606;2022-09-03T11:11:06;18.70;99.90
19930;DHT22;10127;47.780;9.606;2022-09-03T11:13:43;17.60;99.90
19930;DHT22;10127;47.780;9.606;2022-09-03T11:16:20;17.40;99.90
19930;DHT22;10127;47.780;9.606;2022-09-03T11:19:08;17.20;99.90
19930;DHT22;10127;47.780;9.606;2022-09-03T11:21:37;17.20;99.90
19930;DHT22;10127;47.780;9.606;2022-09-03T11:24:13;17.20;99.90
19930;DHT22;10127;47.780;9.606;2022-09-03T11:26:44;17.40;99.90
19930;DHT22;10127;47.780;9.606;2022-09-03T11:29:21;17.50;99.90
19930;DHT22;10127;47.780;9.606;2022-09-03T11:32:14;17.70;99.90
19930;DHT22;10127;47.780;9.606;2022-09-03T11:34:48;17.90;99.90
19930;DHT22;10127;47.780;9.606;2022-09-03T11:37:26;18.00;99.90
19930;DHT22;10127;47.780;9.606;2022-09-03T11:39:54;18.20;99.90
19930;DHT22;10127;47.780;9.606;2022-09-03T11:45:10;18.30;99.90
19930;DHT22;10127;47.780;9.606;2022-09-03T11:47:39;18.40;99.90
19930;DHT22;10127;47.780;9.606;2022-09-03T11:50:19;18.50;99.90
19930;DHT22;10127;47.780;9.606;2022-09-03T11:52:47;18.50;99.90
19930;DHT22;10127;47.780;9.606;2022-09-03T11:55:24;18.70;99.90
19930;DHT22;10127;47.780;9.606;2022-09-03T11:57:50;18.80;99.90
19930;DHT22;10127;47.780;9.606;2022-09-03T12:00:17;18.80;99.90
19930;DHT22;10127;47.780;9.606;2022-09-03T12:02:59;19.00;99.90
19930;DHT22;10127;47.780;9.606;2022-09-03T12:18:23;19.40;99.90
19930;DHT22;10127;47.780;9.606;2022-09-03T12:25:53;19.70;99.90
19930;DHT22;10127;47.780;9.606;2022-09-03T12:28:21;19.70;99.90
19930;DHT22;10127;47.780;9.606;2022-09-03T12:30:51;19.80;99.90
19930;DHT22;10127;47.780;9.606;2022-09-03T12:33:21;19.90;99.90
19930;DHT22;10127;47.780;9.606;2022-09-03T12:35:58;19.70;99.90
19930;DHT22;10127;47.780;9.606;2022-09-03T12:38:25;19.70;99.90
19930;DHT22;10127;47.780;9.606;2022-09-03T12:40:51;19.90;99.90
19930;DHT22;10127;47.780;9.606;2022-09-03T12:43:17;20.00;99.90
19930;DHT22;10127;47.780;9.606;2022-09-03T12:45:47;20.10;99.90
19930;DHT22;10127;47.780;9.606;2022-09-03T12:48:18;20.20;99.90
19930;DHT22;10127;47.780;9.606;2022-09-03T12:50:45;20.30;99.90
19930;DHT22;10127;47.780;9.606;2022-09-03T12:53:19;20.50;99.90
19930;DHT22;10127;47.780;9.606;2022-09-03T12:55:49;20.60;99.90
19930;DHT22;10127;47.780;9.606;2022-09-03T13:01:15;20.70;99.90
19930;DHT22;10127;47.780;9.606;2022-09-03T13:03:47;20.50;99.90
19930;DHT22;10127;47.780;9.606;2022-09-03T13:06:20;20.60;99.90
19930;DHT22;10127;47.780;9.606;2022-09-03T13:08:49;20.70;99.90
19930;DHT22;10127;47.780;9.606;2022-09-03T13:11:20;20.90;99.90
19930;DHT22;10127;47.780;9.606;2022-09-03T13:14:15;20.90;99.90
19930;DHT22;10127;47.780;9.606;2022-09-03T13:33:42;21.50;99.90
19930;DHT22;10127;47.780;9.606;2022-09-03T13:36:17;21.70;99.90
19930;DHT22;10127;47.780;9.606;2022-09-03T13:41:16;21.90;99.90
19930;DHT22;10127;47.780;9.606;2022-09-03T13:43:56;22.10;99.90
19930;DHT22;10127;47.780;9.606;2022-09-03T13:49:05;22.50;99.90
19930;DHT22;10127;47.780;9.606;2022-09-03T13:51:57;22.50;99.90
19930;DHT22;10127;47.780;9.606;2022-09-03T13:54:35;22.80;99.40
19930;DHT22;10127;47.780;9.606;2022-09-03T13:57:06;22.90;98.70
19930;DHT22;10127;47.780;9.606;2022-09-03T13:59:49;23.10;98.70
19930;DHT22;10127;47.780;9.606;2022-09-03T14:02:35;23.40;99.00
19930;DHT22;10127;47.780;9.606;2022-09-03T14:08:33;23.80;96.30
19930;DHT22;10127;47.780;9.606;2022-09-03T14:18:53;24.10;94.70
19930;DHT22;10127;47.780;9.606;2022-09-03T14:24:29;23.60;95.80
19930;DHT22;10127;47.780;9.606;2022-09-03T14:27:00;23.50;96.20
19930;DHT22;10127;47.780;9.606;2022-09-03T14:29:32;23.40;96.30
19930;DHT22;10127;47.780;9.606;2022-09-03T14:32:27;23.20;96.80
19930;DHT22;10127;47.780;9.606;2022-09-03T14:35:27;23.10;96.60
19930;DHT22;10127;47.780;9.606;2022-09-03T14:49:11;23.80;95.90
19930;DHT22;10127;47.780;9.606;2022-09-03T14:58:20;23.50;96.20
19930;DHT22;10127;47.780;9.606;2022-09-03T15:01:01;23.60;95.70
19930;DHT22;10127;47.780;9.606;2022-09-03T15:11:44;23.60;95.40
19930;DHT22;10127;47.780;9.606;2022-09-03T15:14:23;23.50;96.00
19930;DHT22;10127;47.780;9.606;2022-09-03T15:19:41;23.60;95.90
19930;DHT22;10127;47.780;9.606;2022-09-03T15:24:56;23.70;95.50
19930;DHT22;10127;47.780;9.606;2022-09-03T15:27:55;23.70;95.40
19930;DHT22;10127;47.780;9.606;2022-09-03T15:30:34;23.70;95.40
19930;DHT22;10127;47.780;9.606;2022-09-03T15:36:05;23.70;95.50
19930;DHT22;10127;47.780;9.606;2022-09-03T15:38:40;23.70;95.30
19930;DHT22;10127;47.780;9.606;2022-09-03T15:41:20;23.70;95.50
19930;DHT22;10127;47.780;9.606;2022-09-03T15:43:49;23.70;95.50
19930;DHT22;10127;47.780;9.606;2022-09-03T15:49:02;23.90;94.60
19930;DHT22;10127;47.780;9.606;2022-09-03T15:51:34;24.00;94.60
19930;DHT22;10127;47.780;9.606;2022-09-03T15:56:53;23.60;94.80
19930;DHT22;10127;47.780;9.606;2022-09-03T15:59:27;23.80;94.70
19930;DHT22;10127;47.780;9.606;2022-09-03T16:04:49;24.00;94.60
19930;DHT22;10127;47.780;9.606;2022-09-03T16:07:25;24.20;94.10
19930;DHT22;10127;47.780;9.606;2022-09-03T16:10:14;24.10;94.10
19930;DHT22;10127;47.780;9.606;2022-09-03T16:13:17;24.10;93.70
19930;DHT22;10127;47.780;9.606;2022-09-03T16:15:56;24.10;93.80
19930;DHT22;10127;47.780;9.606;2022-09-03T16:18:32;24.20;93.50
19930;DHT22;10127;47.780;9.606;2022-09-03T16:21:11;25.10;92.40
19930;DHT22;10127;47.780;9.606;2022-09-03T16:29:28;32.70;74.20
19930;DHT22;10127;47.780;9.606;2022-09-03T16:32:34;33.40;72.50
19930;DHT22;10127;47.780;9.606;2022-09-03T16:41:12;27.80;81.70
19930;DHT22;10127;47.780;9.606;2022-09-03T16:43:45;26.20;88.40
19930;DHT22;10127;47.780;9.606;2022-09-03T16:49:22;24.50;92.10
19930;DHT22;10127;47.780;9.606;2022-09-03T16:57:53;23.50;94.00
19930;DHT22;10127;47.780;9.606;2022-09-03T17:00:27;23.30;94.20
19930;DHT22;10127;47.780;9.606;2022-09-03T17:32:50;21.90;97.90
19930;DHT22;10127;47.780;9.606;2022-09-03T17:35:47;21.90;98.40
19930;DHT22;10127;47.780;9.606;2022-09-03T17:44:17;21.60;98.70
19930;DHT22;10127;47.780;9.606;2022-09-03T17:49:22;21.40;99.20
19930;DHT22;10127;47.780;9.606;2022-09-03T17:51:57;21.30;99.60
19930;DHT22;10127;47.780;9.606;2022-09-03T17:54:43;21.20;99.70
19930;DHT22;10127;47.780;9.606;2022-09-03T17:57:16;21.00;99.90
19930;DHT22;10127;47.780;9.606;2022-09-03T18:00:04;21.00;99.90
19930;DHT22;10127;47.780;9.606;2022-09-03T18:02:41;20.90;99.90
19930;DHT22;10127;47.780;9.606;2022-09-03T18:05:23;20.80;99.90
19930;DHT22;10127;47.780;9.606;2022-09-03T18:08:11;20.70;99.90
19930;DHT22;10127;47.780;9.606;2022-09-03T18:16:48;20.60;99.90
19930;DHT22;10127;47.780;9.606;2022-09-03T18:19:38;20.50;99.90
19930;DHT22;10127;47.780;9.606;2022-09-03T18:22:41;20.40;99.90
19930;DHT22;10127;47.780;9.606;2022-09-03T18:25:31;20.30;99.90
19930;DHT22;10127;47.780;9.606;2022-09-03T18:28:18;20.30;99.90
19930;DHT22;10127;47.780;9.606;2022-09-03T18:31:12;20.20;99.90
19930;DHT22;10127;47.780;9.606;2022-09-03T18:33:58;20.20;99.90
19930;DHT22;10127;47.780;9.606;2022-09-03T18:36:42;20.20;99.90
19930;DHT22;10127;47.780;9.606;2022-09-03T18:39:27;20.10;99.90
19930;DHT22;10127;47.780;9.606;2022-09-03T18:42:42;20.10;99.90
19930;DHT22;10127;47.780;9.606;2022-09-03T18:48:47;20.10;99.90
19930;DHT22;10127;47.780;9.606;2022-09-03T18:51:50;19.90;99.90
19930;DHT22;10127;47.780;9.606;2022-09-03T18:54:49;19.90;99.90
19930;DHT22;10127;47.780;9.606;2022-09-03T19:00:33;19.80;99.90
19930;DHT22;10127;47.780;9.606;2022-09-03T19:03:45;19.80;99.90
19930;DHT22;10127;47.780;9.606;2022-09-03T19:06:59;19.70;99.90
19930;DHT22;10127;47.780;9.606;2022-09-03T19:10:06;19.60;99.90
19930;DHT22;10127;47.780;9.606;2022-09-03T19:21:52;19.40;99.90
19930;DHT22;10127;47.780;9.606;2022-09-03T19:24:37;19.40;99.90
19930;DHT22;10127;47.780;9.606;2022-09-03T19:27:50;19.40;99.90
19930;DHT22;10127;47.780;9.606;2022-09-03T19:33:42;19.10;99.90
19930;DHT22;10127;47.780;9.606;2022-09-03T19:39:42;19.00;99.90
19930;DHT22;10127;47.780;9.606;2022-09-03T19:43:01;19.00;99.90
19930;DHT22;10127;47.780;9.606;2022-09-03T19:52:08;18.90;99.90
19930;DHT22;10127;47.780;9.606;2022-09-03T19:54:56;18.90;99.90
19930;DHT22;10127;47.780;9.606;2022-09-03T19:57:43;18.70;99.90
19930;DHT22;10127;47.780;9.606;2022-09-03T20:00:30;18.70;99.90
19930;DHT22;10127;47.780;9.606;2022-09-03T20:03:15;18.80;99.90
19930;DHT22;10127;47.780;9.606;2022-09-03T20:06:02;18.70;99.90
19930;DHT22;10127;47.780;9.606;2022-09-03T20:08:48;18.70;99.90
19930;DHT22;10127;47.780;9.606;2022-09-03T20:11:34;18.60;99.90
19930;DHT22;10127;47.780;9.606;2022-09-03T20:14:01;18.60;99.90
19930;DHT22;10127;47.780;9.606;2022-09-03T20:16:53;18.60;99.90
19930;DHT22;10127;47.780;9.606;2022-09-03T20:30:36;18.50;99.90
19930;DHT22;10127;47.780;9.606;2022-09-03T20:33:09;18.30;99.90
19930;DHT22;10127;47.780;9.606;2022-09-03T20:41:39;18.20;99.90
19930;DHT22;10127;47.780;9.606;2022-09-03T20:46:38;18.00;99.90
19930;DHT22;10127;47.780;9.606;2022-09-03T20:49:13;17.90;99.90
19930;DHT22;10127;47.780;9.606;2022-09-03T20:52:03;18.10;99.90
19930;DHT22;10127;47.780;9.606;2022-09-03T20:54:36;18.10;99.90
19930;DHT22;10127;47.780;9.606;2022-09-03T20:57:17;18.10;99.90
19930;DHT22;10127;47.780;9.606;2022-09-03T21:05:30;18.20;99.90
19930;DHT22;10127;47.780;9.606;2022-09-03T21:13:54;18.10;99.90
19930;DHT22;10127;47.780;9.606;2022-09-03T21:24:29;17.90;99.90
19930;DHT22;10127;47.780;9.606;2022-09-03T21:27:00;17.70;99.90
19930;DHT22;10127;47.780;9.606;2022-09-03T21:29:31;17.50;99.90
19930;DHT22;10127;47.780;9.606;2022-09-03T21:32:20;17.40;99.90
19930;DHT22;10127;47.780;9.606;2022-09-03T21:35:02;17.30;99.90
19930;DHT22;10127;47.780;9.606;2022-09-03T21:37:34;17.30;99.90
19930;DHT22;10127;47.780;9.606;2022-09-03T21:40:00;17.40;99.90
19930;DHT22;10127;47.780;9.606;2022-09-03T21:42:40;17.40;99.90
19930;DHT22;10127;47.780;9.606;2022-09-03T21:45:30;17.50;99.90
19930;DHT22;10127;47.780;9.606;2022-09-03T21:48:15;17.50;99.90
19930;DHT22;10127;47.780;9.606;2022-09-03T21:50:57;17.50;99.90
19930;DHT22;10127;47.780;9.606;2022-09-03T21:59:42;17.50;99.90
19930;DHT22;10127;47.780;9.606;2022-09-03T22:02:31;17.50;99.90
19930;DHT22;10127;47.780;9.606;2022-09-03T22:04:58;17.50;99.90